createdAt,value
2022-09-23T00:02:18.304Z,100.00
2022-09-23T00:04:49.771Z,100.00
2022-09-23T00:07:20.182Z,100.00
2022-09-23T00:09:51.551Z,100.00
2022-09-23T00:12:21.482Z,100.00
2022-09-23T00:14:51.401Z,100.00
2022-09-23T00:17:21.502Z,100.00
2022-09-23T00:19:54.472Z,100.00
2022-09-23T00:22:24.511Z,100.00
2022-09-23T00:24:55.048Z,100.00
2022-09-23T00:27:24.972Z,100.00
2022-09-23T00:29:55.089Z,100.00
2022-09-23T00:32:25.320Z,100.00
2022-09-23T00:34:57.041Z,100.00
2022-09-23T00:37:27.364Z,100.00
2022-09-23T00:39:57.471Z,100.00
2022-09-23T00:42:27.450Z,100.00
2022-09-23T00:44:59.031Z,100.00
2022-09-23T00:47:35.871Z,100.00
2022-09-23T00:50:12.141Z,100.00
2022-09-23T00:52:42.419Z,100.00
2022-09-23T00:55:17.701Z,100.00
2022-09-23T00:57:49.211Z,100.00
2022-09-23T01:00:19.643Z,100.00
2022-09-23T01:02:49.782Z,100.00
2022-09-23T01:05:23.431Z,100.00
2022-09-23T01:07:54.201Z,100.00
2022-09-23T01:10:25.753Z,100.00
2022-09-23T01:13:16.294Z,100.00
2022-09-23T01:15:52.381Z,100.00
2022-09-23T01:18:33.822Z,100.00
2022-09-23T01:21:18.871Z,100.00
2022-09-23T01:24:19.241Z,100.00
2022-09-23T01:27:07.503Z,100.00
2022-09-23T01:30:11.304Z,100.00
2022-09-23T01:33:01.821Z,100.00
2022-09-23T01:35:42.692Z,100.00
2022-09-23T01:38:33.193Z,100.00
2022-09-23T01:41:13.911Z,100.00
2022-09-23T01:43:56.161Z,100.00
2022-09-23T01:46:31.700Z,100.00
2022-09-23T01:49:09.872Z,100.00
2022-09-23T01:51:43.479Z,100.00
2022-09-23T01:54:19.271Z,100.00
2022-09-23T01:56:52.966Z,100.00
2022-09-23T01:59:30.851Z,100.00
2022-09-23T02:02:05.606Z,100.00
2022-09-23T02:04:45.951Z,100.00
2022-09-23T02:07:23.924Z,100.00
2022-09-23T02:09:58.773Z,100.00
2022-09-23T02:12:31.861Z,100.00
2022-09-23T02:15:05.539Z,100.00
2022-09-23T02:17:40.491Z,100.00
2022-09-23T02:20:15.202Z,100.00
2022-09-23T02:22:56.582Z,100.00
2022-09-23T02:25:34.291Z,100.00
2022-09-23T02:28:12.126Z,100.00
2022-09-23T02:30:52.053Z,100.00
2022-09-23T02:33:26.782Z,100.00
2022-09-23T02:36:03.311Z,100.00
2022-09-23T02:38:38.862Z,100.00
2022-09-23T02:41:16.369Z,100.00
2022-09-23T02:43:51.853Z,100.00
2022-09-23T02:46:23.563Z,100.00
2022-09-23T02:48:55.771Z,100.00
2022-09-23T02:51:28.323Z,100.00
2022-09-23T02:53:59.761Z,100.00
2022-09-23T02:56:30.040Z,100.00
2022-09-23T02:59:00.623Z,100.00
2022-09-23T03:01:41.981Z,100.00
2022-09-23T03:04:15.245Z,100.00
2022-09-23T03:06:59.370Z,100.00
2022-09-23T03:09:35.621Z,100.00
2022-09-23T03:12:14.792Z,100.00
2022-09-23T03:14:54.093Z,100.00
2022-09-23T03:17:31.184Z,100.00
2022-09-23T03:20:07.445Z,100.00
2022-09-23T03:22:44.573Z,100.00
2022-09-23T03:25:17.501Z,100.00
2022-09-23T03:27:47.823Z,100.00
2022-09-23T03:30:22.010Z,100.00
2022-09-23T03:32:53.334Z,100.00
2022-09-23T03:35:25.769Z,100.00
2022-09-23T03:38:03.202Z,100.00
2022-09-23T03:40:38.576Z,100.00
2022-09-23T03:43:08.593Z,100.00
2022-09-23T03:45:39.012Z,100.00
2022-09-23T03:48:08.966Z,100.00
2022-09-23T03:50:39.772Z,100.00
2022-09-23T03:53:14.060Z,100.00
2022-09-23T03:55:45.856Z,100.00
2022-09-23T03:58:17.051Z,100.00
2022-09-23T04:00:47.274Z,100.00
2022-09-23T04:03:17.412Z,100.00
2022-09-23T04:05:48.762Z,100.00
2022-09-23T04:08:20.169Z,100.00
2022-09-23T04:10:54.184Z,100.00
2022-09-23T04:13:25.314Z,100.00
2022-09-23T04:15:55.445Z,100.00
2022-09-23T04:18:25.457Z,100.00
2022-09-23T04:21:00.545Z,100.00
2022-09-23T04:23:32.091Z,100.00
2022-09-23T04:26:02.071Z,100.00
2022-09-23T04:28:32.042Z,100.00
2022-09-23T04:31:06.657Z,100.00
2022-09-23T04:33:37.931Z,100.00
2022-09-23T04:36:08.431Z,100.00
2022-09-23T04:38:40.081Z,100.00
2022-09-23T04:41:11.560Z,100.00
2022-09-23T04:43:42.430Z,100.00
2022-09-23T04:46:14.030Z,100.00
2022-09-23T04:48:45.011Z,100.00
2022-09-23T04:51:17.252Z,100.00
2022-09-23T04:53:51.091Z,100.00
2022-09-23T04:56:23.139Z,100.00
2022-09-23T04:58:54.151Z,100.00
2022-09-23T05:01:27.194Z,100.00
2022-09-23T05:04:02.181Z,100.00
2022-09-23T05:06:33.390Z,100.00
2022-09-23T05:09:08.695Z,100.00
2022-09-23T05:11:38.760Z,100.00
2022-09-23T05:14:09.141Z,100.00
2022-09-23T05:16:39.159Z,100.00
2022-09-23T05:19:09.252Z,100.00
2022-09-23T05:21:39.740Z,100.00
2022-09-23T05:24:11.413Z,100.00
2022-09-23T05:26:42.890Z,100.00
2022-09-23T05:29:13.324Z,100.00
2022-09-23T05:31:43.572Z,100.00
2022-09-23T05:34:13.889Z,100.00
2022-09-23T05:36:44.380Z,100.00
2022-09-23T05:39:15.771Z,100.00
2022-09-23T05:41:46.103Z,100.00
2022-09-23T05:44:17.011Z,100.00
2022-09-23T05:46:47.390Z,100.00
2022-09-23T05:49:17.833Z,100.00
2022-09-23T05:51:48.190Z,100.00
2022-09-23T05:54:19.650Z,100.00
2022-09-23T05:56:50.059Z,100.00
2022-09-23T05:59:20.052Z,100.00
2022-09-23T06:01:52.122Z,100.00
2022-09-23T06:04:26.513Z,100.00
2022-09-23T06:07:03.262Z,100.00
2022-09-23T06:09:36.953Z,100.00
2022-09-23T06:12:08.129Z,100.00
2022-09-23T06:14:38.710Z,100.00
2022-09-23T06:17:08.651Z,100.00
2022-09-23T06:19:38.671Z,100.00
2022-09-23T06:22:08.819Z,100.00
2022-09-23T06:24:40.423Z,100.00
2022-09-23T06:27:12.180Z,100.00
2022-09-23T06:29:42.243Z,100.00
2022-09-23T06:32:13.870Z,100.00
2022-09-23T06:34:52.044Z,100.00
2022-09-23T06:37:23.624Z,100.00
2022-09-23T06:39:55.520Z,100.00
2022-09-23T06:42:25.790Z,100.00
2022-09-23T06:44:57.350Z,100.00
2022-09-23T06:47:27.523Z,100.00
2022-09-23T06:49:57.612Z,100.00
2022-09-23T06:52:28.941Z,100.00
2022-09-23T06:55:01.264Z,100.00
2022-09-23T06:57:33.148Z,100.00
2022-09-23T07:00:04.111Z,100.00
2022-09-23T07:02:34.141Z,100.00
2022-09-23T07:05:04.601Z,100.00
2022-09-23T07:07:37.000Z,100.00
2022-09-23T07:10:09.830Z,100.00
2022-09-23T07:12:40.079Z,100.00
2022-09-23T07:15:11.480Z,97.82
2022-09-23T07:17:44.380Z,95.88
2022-09-23T07:20:15.062Z,94.66
2022-09-23T07:22:45.642Z,94.86
2022-09-23T07:25:17.983Z,91.96
2022-09-23T07:27:48.921Z,87.86
2022-09-23T07:30:25.178Z,88.15
2022-09-23T07:32:55.935Z,88.32
2022-09-23T07:35:28.461Z,86.10
2022-09-23T07:37:58.501Z,82.68
2022-09-23T07:40:30.849Z,80.87
2022-09-23T07:43:01.252Z,81.56
2022-09-23T07:45:32.410Z,82.49
2022-09-23T07:48:03.911Z,79.83
2022-09-23T07:50:34.190Z,76.75
2022-09-23T07:53:05.473Z,78.82
2022-09-23T07:55:37.359Z,76.76
2022-09-23T07:58:07.498Z,75.76
2022-09-23T08:00:38.619Z,76.50
2022-09-23T08:03:12.419Z,74.81
2022-09-23T08:05:42.700Z,73.42
2022-09-23T08:08:14.384Z,73.47
2022-09-23T08:10:46.641Z,74.33
2022-09-23T08:13:17.090Z,74.45
2022-09-23T08:15:55.243Z,74.41
2022-09-23T08:18:25.789Z,72.44
2022-09-23T08:20:56.190Z,70.61
2022-09-23T08:23:27.049Z,69.70
2022-09-23T08:26:02.007Z,70.77
2022-09-23T08:28:33.540Z,67.89
2022-09-23T08:31:04.180Z,67.21
2022-09-23T08:33:34.361Z,65.56
2022-09-23T08:36:05.591Z,65.07
2022-09-23T08:38:36.200Z,61.22
2022-09-23T08:41:15.211Z,61.07
2022-09-23T08:43:54.111Z,61.01
2022-09-23T08:46:27.636Z,58.76
2022-09-23T08:49:00.710Z,58.49
2022-09-23T08:51:36.940Z,58.06
2022-09-23T08:54:08.391Z,60.09
2022-09-23T08:56:41.601Z,61.17
2022-09-23T08:59:17.872Z,58.32
2022-09-23T09:01:51.717Z,57.61
2022-09-23T09:04:28.124Z,57.67
2022-09-23T09:07:31.865Z,57.50
2022-09-23T09:09:58.529Z,56.17
2022-09-23T09:12:41.364Z,56.36
2022-09-23T09:15:16.401Z,59.49
2022-09-23T09:17:59.604Z,59.71
2022-09-23T09:20:40.899Z,57.33
2022-09-23T09:23:22.341Z,55.43
2022-09-23T09:25:54.332Z,58.31
2022-09-23T09:28:32.152Z,57.78
2022-09-23T09:31:04.740Z,57.38
2022-09-23T09:33:46.261Z,56.75
2022-09-23T09:36:30.927Z,55.87
2022-09-23T09:39:01.090Z,56.23
2022-09-23T09:41:32.738Z,55.25
2022-09-23T09:44:11.410Z,56.17
2022-09-23T09:46:57.108Z,56.06
2022-09-23T09:49:40.179Z,57.50
2022-09-23T09:52:21.101Z,59.53
2022-09-23T09:54:52.029Z,58.72
2022-09-23T09:57:35.295Z,58.41
2022-09-23T10:00:42.363Z,59.99
2022-09-23T10:03:33.388Z,59.77
2022-09-23T10:06:17.613Z,60.81
2022-09-23T10:09:06.487Z,63.53
2022-09-23T10:11:36.920Z,66.14
2022-09-23T10:14:12.979Z,66.01
2022-09-23T10:16:44.834Z,64.97
2022-09-23T10:19:24.437Z,65.86
2022-09-23T10:21:58.888Z,67.26
2022-09-23T10:24:32.510Z,66.61
2022-09-23T10:27:07.962Z,66.20
2022-09-23T10:29:41.300Z,67.30
2022-09-23T10:32:28.087Z,67.83
2022-09-23T10:35:03.099Z,68.78
2022-09-23T10:37:38.411Z,68.35
2022-09-23T10:40:33.043Z,68.85
2022-09-23T10:43:41.554Z,68.21
2022-09-23T10:46:41.696Z,68.97
2022-09-23T10:49:56.634Z,69.65
2022-09-23T10:52:56.629Z,71.57
2022-09-23T10:55:40.600Z,70.22
2022-09-23T10:59:12.372Z,68.48
2022-09-23T11:01:49.443Z,69.48
2022-09-23T11:04:33.754Z,69.30
2022-09-23T11:07:14.515Z,69.79
2022-09-23T11:10:14.548Z,70.00
2022-09-23T11:13:03.658Z,70.93
2022-09-23T11:15:44.259Z,69.05
2022-09-23T11:18:50.369Z,69.38
2022-09-23T11:21:50.745Z,68.95
2022-09-23T11:24:52.393Z,66.34
2022-09-23T11:27:40.155Z,68.97
2022-09-23T11:30:13.807Z,67.59
2022-09-23T11:33:14.604Z,67.35
2022-09-23T11:35:50.225Z,64.89
2022-09-23T11:38:26.377Z,66.60
2022-09-23T11:41:01.978Z,64.92
2022-09-23T11:43:40.879Z,67.50
2022-09-23T11:46:17.997Z,65.89
2022-09-23T11:48:56.619Z,68.45
2022-09-23T11:51:31.841Z,68.84
2022-09-23T11:54:06.476Z,68.67
2022-09-23T11:56:46.510Z,68.07
2022-09-23T11:59:39.149Z,67.76
2022-09-23T12:02:24.651Z,66.65
2022-09-23T12:05:03.223Z,65.41
2022-09-23T12:07:46.143Z,65.42
2022-09-23T12:10:17.394Z,65.14
2022-09-23T12:13:00.083Z,64.97
2022-09-23T12:15:50.772Z,61.90
2022-09-23T12:18:49.013Z,60.86
2022-09-23T12:21:50.690Z,59.82
2022-09-23T12:24:48.719Z,59.16
2022-09-23T12:27:30.369Z,59.55
2022-09-23T12:30:03.810Z,58.75
2022-09-23T12:32:36.936Z,58.72
2022-09-23T12:35:08.976Z,58.70
2022-09-23T12:37:41.115Z,55.99
2022-09-23T12:40:20.305Z,54.98
2022-09-23T12:42:52.208Z,55.95
2022-09-23T12:45:44.107Z,57.09
2022-09-23T12:48:47.662Z,56.97
2022-09-23T12:51:22.382Z,58.82
2022-09-23T12:54:21.486Z,57.68
2022-09-23T12:57:06.631Z,56.00
2022-09-23T13:00:00.492Z,55.06
2022-09-23T13:02:36.762Z,57.56
2022-09-23T13:05:44.418Z,57.67
2022-09-23T13:08:17.810Z,56.98
2022-09-23T13:10:51.030Z,56.47
2022-09-23T13:13:27.942Z,56.52
2022-09-23T13:16:11.947Z,55.89
2022-09-23T13:19:00.721Z,51.77
2022-09-23T13:22:12.950Z,52.81
2022-09-23T13:24:54.206Z,50.65
2022-09-23T13:27:32.510Z,49.82
2022-09-23T13:30:06.293Z,51.24
2022-09-23T13:32:41.240Z,54.25
2022-09-23T13:35:23.021Z,56.69
2022-09-23T13:37:53.890Z,57.55
2022-09-23T13:40:28.067Z,56.94
2022-09-23T13:43:03.561Z,57.20
2022-09-23T13:45:38.307Z,60.53
2022-09-23T13:48:13.116Z,60.98
2022-09-23T13:50:49.527Z,59.47
2022-09-23T13:53:26.920Z,60.45
2022-09-23T13:56:08.093Z,61.33
2022-09-23T13:58:38.840Z,62.20
2022-09-23T14:01:10.638Z,60.96
2022-09-23T14:03:41.515Z,64.39
2022-09-23T14:06:15.054Z,63.86
2022-09-23T14:08:48.516Z,63.55
2022-09-23T14:11:22.005Z,64.40
2022-09-23T14:13:54.635Z,63.08
2022-09-23T14:16:27.157Z,63.51
2022-09-23T14:19:00.969Z,63.53
2022-09-23T14:21:35.375Z,63.18
2022-09-23T14:24:18.204Z,64.10
2022-09-23T14:26:54.718Z,64.56
2022-09-23T14:29:28.595Z,65.43
2022-09-23T14:32:04.001Z,64.03
2022-09-23T14:34:48.935Z,66.00
2022-09-23T14:37:51.127Z,64.95
2022-09-23T14:40:24.174Z,65.26
2022-09-23T14:43:05.073Z,66.97
2022-09-23T14:45:38.488Z,67.10
2022-09-23T14:48:11.971Z,67.53
2022-09-23T14:50:50.895Z,68.49
2022-09-23T14:53:49.578Z,67.44
2022-09-23T14:56:26.182Z,68.37
2022-09-23T14:59:04.145Z,68.85
2022-09-23T15:01:41.653Z,68.03
2022-09-23T15:04:15.814Z,70.16
2022-09-23T15:06:59.491Z,71.76
2022-09-23T15:09:33.537Z,73.41
2022-09-23T15:12:07.342Z,74.33
2022-09-23T15:14:43.254Z,77.30
2022-09-23T15:17:27.570Z,77.57
2022-09-23T15:20:01.014Z,79.16
2022-09-23T15:22:31.362Z,79.41
2022-09-23T15:25:22.764Z,80.14
2022-09-23T15:28:07.167Z,82.12
2022-09-23T15:30:40.483Z,83.29
2022-09-23T15:33:15.297Z,83.45
2022-09-23T15:35:48.553Z,86.38
2022-09-23T15:38:25.117Z,87.57
2022-09-23T15:40:56.279Z,88.04
2022-09-23T15:43:28.234Z,89.42
2022-09-23T15:46:00.934Z,93.05
2022-09-23T15:48:39.201Z,92.73
2022-09-23T15:51:13.336Z,93.40
2022-09-23T15:53:46.142Z,95.29
2022-09-23T15:56:17.197Z,92.69
2022-09-23T15:58:48.427Z,94.76
2022-09-23T16:01:25.077Z,94.94
2022-09-23T16:03:55.887Z,97.13
2022-09-23T16:06:28.164Z,97.15
2022-09-23T16:08:58.528Z,97.02
2022-09-23T16:11:32.012Z,98.84
2022-09-23T16:14:08.242Z,100.00
2022-09-23T16:16:43.089Z,100.00
2022-09-23T16:19:13.893Z,100.00
2022-09-23T16:21:45.077Z,100.00
2022-09-23T16:24:19.025Z,100.00
2022-09-23T16:26:50.763Z,100.00
2022-09-23T16:29:22.166Z,100.00
2022-09-23T16:31:53.908Z,100.00
2022-09-23T16:34:25.293Z,100.00
2022-09-23T16:36:57.390Z,100.00
2022-09-23T16:39:28.281Z,100.00
2022-09-23T16:41:59.238Z,100.00
2022-09-23T16:44:32.262Z,100.00
2022-09-23T16:47:05.911Z,100.00
2022-09-23T16:49:36.416Z,100.00
2022-09-23T16:52:10.285Z,100.00
2022-09-23T16:54:44.729Z,100.00
2022-09-23T16:57:19.200Z,100.00
2022-09-23T17:00:09.450Z,100.00
2022-09-23T17:02:58.548Z,100.00
2022-09-23T17:05:32.116Z,100.00
2022-09-23T17:08:02.880Z,100.00
2022-09-23T17:10:33.542Z,100.00
2022-09-23T17:13:03.752Z,100.00
2022-09-23T17:15:36.509Z,100.00
2022-09-23T17:18:09.378Z,100.00
2022-09-23T17:20:39.720Z,100.00
2022-09-23T17:23:09.908Z,100.00
2022-09-23T17:25:40.344Z,100.00
2022-09-23T17:28:10.629Z,100.00
2022-09-23T17:30:41.148Z,100.00
2022-09-23T17:33:12.932Z,100.00
2022-09-23T17:35:43.565Z,100.00
2022-09-23T17:38:13.459Z,100.00
2022-09-23T17:40:50.977Z,100.00
2022-09-23T17:43:25.275Z,100.00
2022-09-23T17:45:56.446Z,100.00
2022-09-23T17:48:29.762Z,100.00
2022-09-23T17:51:02.629Z,100.00
2022-09-23T17:53:34.140Z,100.00
2022-09-23T17:56:06.458Z,100.00
2022-09-23T17:58:38.828Z,100.00
2022-09-23T18:01:12.316Z,100.00
2022-09-23T18:03:44.872Z,100.00
2022-09-23T18:06:17.155Z,100.00
2022-09-23T18:08:49.107Z,100.00
2022-09-23T18:11:21.227Z,100.00
2022-09-23T18:13:54.039Z,100.00
2022-09-23T18:16:26.678Z,100.00
2022-09-23T18:19:05.259Z,100.00
2022-09-23T18:21:41.237Z,100.00
2022-09-23T18:27:02.668Z,100.00
2022-09-23T18:29:36.417Z,100.00
2022-09-23T18:32:08.225Z,100.00
2022-09-23T18:34:43.395Z,100.00
2022-09-23T18:37:15.917Z,100.00
2022-09-23T18:39:48.893Z,100.00
2022-09-23T18:42:19.829Z,100.00
2022-09-23T18:44:54.468Z,100.00
2022-09-23T18:47:38.917Z,100.00
2022-09-23T18:50:31.271Z,100.00
2022-09-23T18:53:01.888Z,100.00
2022-09-23T18:55:36.341Z,100.00
2022-09-23T18:58:07.698Z,100.00
2022-09-23T19:00:38.174Z,100.00
2022-09-23T19:03:08.164Z,100.00
2022-09-23T19:05:39.664Z,100.00
2022-09-23T19:08:09.848Z,100.00
2022-09-23T19:10:39.717Z,100.00
2022-09-23T19:13:09.601Z,100.00
2022-09-23T19:15:41.248Z,100.00
2022-09-23T19:18:11.538Z,100.00
2022-09-23T19:20:51.440Z,100.00
2022-09-23T19:23:22.154Z,100.00
2022-09-23T19:25:52.640Z,100.00
2022-09-23T19:28:22.799Z,100.00
2022-09-23T19:30:53.098Z,100.00
2022-09-23T19:33:23.550Z,100.00
2022-09-23T19:35:55.226Z,100.00
2022-09-23T19:38:25.389Z,100.00
2022-09-23T19:40:56.047Z,100.00
2022-09-23T19:43:26.122Z,100.00
2022-09-23T19:46:10.472Z,100.00
2022-09-23T19:48:40.681Z,100.00
2022-09-23T19:51:13.410Z,100.00
2022-09-23T19:53:45.819Z,100.00
2022-09-23T19:56:18.388Z,100.00
2022-09-23T19:58:51.599Z,100.00
2022-09-23T20:01:22.035Z,100.00
2022-09-23T20:03:53.572Z,100.00
2022-09-23T20:06:25.302Z,100.00
2022-09-23T20:08:57.870Z,100.00
2022-09-23T20:11:28.835Z,100.00
2022-09-23T20:14:01.968Z,100.00
2022-09-23T20:16:37.355Z,100.00
2022-09-23T20:19:07.869Z,100.00
2022-09-23T20:21:39.664Z,100.00
2022-09-23T20:24:12.315Z,100.00
2022-09-23T20:27:14.128Z,100.00
2022-09-23T20:29:44.200Z,100.00
2022-09-23T20:32:14.901Z,100.00
2022-09-23T20:34:46.919Z,100.00
2022-09-23T20:37:20.639Z,100.00
2022-09-23T20:39:51.267Z,100.00
2022-09-23T20:42:22.619Z,100.00
2022-09-23T20:44:52.608Z,100.00
2022-09-23T20:47:25.778Z,100.00
2022-09-23T20:49:55.817Z,100.00
2022-09-23T20:52:27.539Z,100.00
2022-09-23T20:54:57.617Z,100.00
2022-09-23T20:57:28.501Z,100.00
2022-09-23T20:59:58.490Z,100.00
2022-09-23T21:02:28.800Z,100.00
2022-09-23T21:04:58.833Z,100.00
2022-09-23T21:07:31.273Z,100.00
2022-09-23T21:10:02.461Z,100.00
2022-09-23T21:12:32.929Z,100.00
2022-09-23T21:15:03.054Z,100.00
2022-09-23T21:17:33.858Z,100.00
2022-09-23T21:20:04.239Z,100.00
2022-09-23T21:22:36.479Z,100.00
2022-09-23T21:27:59.198Z,100.00
2022-09-23T21:30:29.310Z,100.00
2022-09-23T21:32:59.819Z,100.00
2022-09-23T21:35:30.098Z,100.00
2022-09-23T21:38:03.897Z,100.00
2022-09-23T21:40:51.280Z,100.00
2022-09-23T21:43:21.568Z,100.00
2022-09-23T21:45:57.219Z,100.00
2022-09-23T21:48:28.679Z,100.00
2022-09-23T21:51:00.018Z,100.00
2022-09-23T21:53:32.039Z,100.00
2022-09-23T21:56:07.319Z,100.00
2022-09-23T21:58:39.319Z,100.00
2022-09-23T22:01:10.584Z,100.00
2022-09-23T22:03:40.617Z,100.00
2022-09-23T22:06:12.155Z,100.00
2022-09-23T22:08:45.119Z,100.00
2022-09-23T22:11:30.450Z,100.00
2022-09-23T22:14:02.194Z,100.00
2022-09-23T22:16:32.616Z,100.00
2022-09-23T22:19:05.416Z,100.00
2022-09-23T22:21:37.669Z,100.00
2022-09-23T22:24:11.165Z,100.00
2022-09-23T22:26:43.168Z,100.00
2022-09-23T22:29:32.598Z,100.00
2022-09-23T22:32:20.825Z,100.00
2022-09-23T22:34:52.910Z,100.00
2022-09-23T22:37:26.250Z,100.00
2022-09-23T22:39:57.901Z,100.00
2022-09-23T22:42:27.839Z,100.00
2022-09-23T22:44:58.159Z,100.00
2022-09-23T22:47:28.652Z,100.00
2022-09-23T22:49:59.050Z,100.00
2022-09-23T22:52:29.169Z,100.00
2022-09-23T22:55:00.621Z,100.00
2022-09-23T22:57:31.545Z,100.00
2022-09-23T23:00:01.629Z,100.00
2022-09-23T23:02:31.869Z,100.00
2022-09-23T23:05:02.592Z,100.00
2022-09-23T23:07:35.140Z,100.00
2022-09-23T23:10:07.670Z,100.00
2022-09-23T23:12:37.661Z,100.00
2022-09-23T23:15:09.571Z,100.00
2022-09-23T23:17:40.926Z,100.00
2022-09-23T23:20:11.034Z,100.00
2022-09-23T23:22:40.914Z,100.00
2022-09-23T23:25:12.765Z,100.00
2022-09-23T23:27:43.228Z,100.00
2022-09-23T23:30:14.085Z,100.00
2022-09-23T23:32:44.326Z,100.00
2022-09-23T23:35:14.395Z,100.00
2022-09-23T23:37:44.747Z,100.00
2022-09-23T23:40:16.575Z,100.00
2022-09-23T23:42:46.205Z,100.00
2022-09-23T23:45:16.948Z,100.00
2022-09-23T23:47:46.925Z,100.00
2022-09-23T23:50:18.130Z,100.00
2022-09-23T23:52:48.068Z,100.00
2022-09-23T23:55:19.885Z,100.00
2022-09-23T23:57:52.374Z,100.00
